sensor_id;sensor_type;location;lat;lon;timestamp;P1;durP1;ratioP1;P2;durP2;ratioP2
60078;SDS011;45951;45.824;8.824;2024-01-07T00:00:45;0.63;;;0.52;;
60078;SDS011;45951;45.824;8.824;2024-01-07T00:02:26;0.40;;;0.40;;
60078;SDS011;45951;45.824;8.824;2024-01-07T00:04:06;0.50;;;0.45;;
60078;SDS011;45951;45.824;8.824;2024-01-07T00:05:46;0.30;;;0.30;;
60078;SDS011;45951;45.824;8.824;2024-01-07T00:07:27;0.30;;;0.30;;
60078;SDS011;45951;45.824;8.824;2024-01-07T00:09:07;0.30;;;0.30;;
60078;SDS011;45951;45.824;8.824;2024-01-07T00:10:47;0.40;;;0.38;;
60078;SDS011;45951;45.824;8.824;2024-01-07T00:12:28;0.38;;;0.38;;
60078;SDS011;45951;45.824;8.824;2024-01-07T00:14:08;0.30;;;0.30;;
60078;SDS011;45951;45.824;8.824;2024-01-07T00:15:48;0.32;;;0.32;;
60078;SDS011;45951;45.824;8.824;2024-01-07T00:17:29;0.50;;;0.40;;
60078;SDS011;45951;45.824;8.824;2024-01-07T00:19:09;0.32;;;0.32;;
60078;SDS011;45951;45.824;8.824;2024-01-07T00:20:50;0.32;;;0.32;;
60078;SDS011;45951;45.824;8.824;2024-01-07T00:22:30;0.40;;;0.40;;
60078;SDS011;45951;45.824;8.824;2024-01-07T00:24:10;0.68;;;0.60;;
60078;SDS011;45951;45.824;8.824;2024-01-07T00:25:51;0.30;;;0.30;;
60078;SDS011;45951;45.824;8.824;2024-01-07T00:27:31;0.40;;;0.40;;
60078;SDS011;45951;45.824;8.824;2024-01-07T00:29:11;0.30;;;0.30;;
60078;SDS011;45951;45.824;8.824;2024-01-07T00:30:52;0.45;;;0.45;;
60078;SDS011;45951;45.824;8.824;2024-01-07T00:32:32;0.30;;;0.30;;
60078;SDS011;45951;45.824;8.824;2024-01-07T00:34:12;0.30;;;0.30;;
60078;SDS011;45951;45.824;8.824;2024-01-07T00:35:53;0.40;;;0.40;;
60078;SDS011;45951;45.824;8.824;2024-01-07T00:37:33;0.30;;;0.30;;
60078;SDS011;45951;45.824;8.824;2024-01-07T00:39:15;0.30;;;0.30;;
60078;SDS011;45951;45.824;8.824;2024-01-07T00:40:55;0.30;;;0.30;;
60078;SDS011;45951;45.824;8.824;2024-01-07T00:42:35;0.40;;;0.40;;
60078;SDS011;45951;45.824;8.824;2024-01-07T00:44:15;0.30;;;0.30;;
60078;SDS011;45951;45.824;8.824;2024-01-07T00:45:56;0.30;;;0.30;;
60078;SDS011;45951;45.824;8.824;2024-01-07T00:47:36;0.30;;;0.30;;
60078;SDS011;45951;45.824;8.824;2024-01-07T00:49:16;0.40;;;0.40;;
60078;SDS011;45951;45.824;8.824;2024-01-07T00:50:57;0.30;;;0.30;;
60078;SDS011;45951;45.824;8.824;2024-01-07T00:52:37;0.52;;;0.40;;
60078;SDS011;45951;45.824;8.824;2024-01-07T00:54:17;0.30;;;0.30;;
60078;SDS011;45951;45.824;8.824;2024-01-07T00:55:58;0.68;;;0.45;;
60078;SDS011;45951;45.824;8.824;2024-01-07T00:57:38;0.40;;;0.40;;
60078;SDS011;45951;45.824;8.824;2024-01-07T00:59:18;0.30;;;0.30;;
60078;SDS011;45951;45.824;8.824;2024-01-07T01:00:59;0.43;;;0.43;;
60078;SDS011;45951;45.824;8.824;2024-01-07T01:02:40;0.50;;;0.50;;
60078;SDS011;45951;45.824;8.824;2024-01-07T01:04:20;0.40;;;0.40;;
60078;SDS011;45951;45.824;8.824;2024-01-07T01:06:00;0.30;;;0.30;;
60078;SDS011;45951;45.824;8.824;2024-01-07T01:07:42;0.50;;;0.50;;
60078;SDS011;45951;45.824;8.824;2024-01-07T01:09:22;0.45;;;0.40;;
60078;SDS011;45951;45.824;8.824;2024-01-07T01:11:03;0.30;;;0.30;;
60078;SDS011;45951;45.824;8.824;2024-01-07T01:12:43;0.22;;;0.22;;
60078;SDS011;45951;45.824;8.824;2024-01-07T01:14:24;0.50;;;0.40;;
60078;SDS011;45951;45.824;8.824;2024-01-07T01:16:04;0.40;;;0.40;;
60078;SDS011;45951;45.824;8.824;2024-01-07T01:17:44;0.30;;;0.30;;
60078;SDS011;45951;45.824;8.824;2024-01-07T01:19:25;0.40;;;0.40;;
60078;SDS011;45951;45.824;8.824;2024-01-07T01:21:05;0.40;;;0.40;;
60078;SDS011;45951;45.824;8.824;2024-01-07T01:22:45;0.47;;;0.40;;
60078;SDS011;45951;45.824;8.824;2024-01-07T01:24:26;0.40;;;0.40;;
60078;SDS011;45951;45.824;8.824;2024-01-07T01:26:06;0.40;;;0.40;;
60078;SDS011;45951;45.824;8.824;2024-01-07T01:27:46;0.30;;;0.30;;
60078;SDS011;45951;45.824;8.824;2024-01-07T01:29:27;0.40;;;0.40;;
60078;SDS011;45951;45.824;8.824;2024-01-07T01:31:07;0.40;;;0.40;;
60078;SDS011;45951;45.824;8.824;2024-01-07T01:32:47;0.43;;;0.43;;
60078;SDS011;45951;45.824;8.824;2024-01-07T01:34:28;0.40;;;0.40;;
60078;SDS011;45951;45.824;8.824;2024-01-07T01:36:08;0.40;;;0.40;;
60078;SDS011;45951;45.824;8.824;2024-01-07T01:37:49;0.30;;;0.30;;
60078;SDS011;45951;45.824;8.824;2024-01-07T01:39:29;0.40;;;0.38;;
60078;SDS011;45951;45.824;8.824;2024-01-07T01:41:09;0.50;;;0.50;;
60078;SDS011;45951;45.824;8.824;2024-01-07T01:42:49;0.47;;;0.47;;
60078;SDS011;45951;45.824;8.824;2024-01-07T01:44:30;0.40;;;0.40;;
60078;SDS011;45951;45.824;8.824;2024-01-07T01:46:11;0.90;;;0.40;;
60078;SDS011;45951;45.824;8.824;2024-01-07T01:47:52;1.02;;;0.50;;
60078;SDS011;45951;45.824;8.824;2024-01-07T01:49:32;0.30;;;0.30;;
60078;SDS011;45951;45.824;8.824;2024-01-07T01:51:12;0.40;;;0.40;;
60078;SDS011;45951;45.824;8.824;2024-01-07T01:52:53;0.30;;;0.30;;
60078;SDS011;45951;45.824;8.824;2024-01-07T01:54:36;0.40;;;0.40;;
60078;SDS011;45951;45.824;8.824;2024-01-07T01:56:20;0.40;;;0.40;;
60078;SDS011;45951;45.824;8.824;2024-01-07T01:58:03;0.40;;;0.38;;
60078;SDS011;45951;45.824;8.824;2024-01-07T01:59:44;0.35;;;0.30;;
60078;SDS011;45951;45.824;8.824;2024-01-07T02:01:24;0.40;;;0.40;;
60078;SDS011;45951;45.824;8.824;2024-01-07T02:03:04;0.30;;;0.30;;
60078;SDS011;45951;45.824;8.824;2024-01-07T02:04:45;0.30;;;0.30;;
60078;SDS011;45951;45.824;8.824;2024-01-07T02:06:25;0.40;;;0.40;;
60078;SDS011;45951;45.824;8.824;2024-01-07T02:08:06;0.47;;;0.47;;
60078;SDS011;45951;45.824;8.824;2024-01-07T02:09:47;0.30;;;0.30;;
60078;SDS011;45951;45.824;8.824;2024-01-07T02:11:27;0.40;;;0.40;;
60078;SDS011;45951;45.824;8.824;2024-01-07T02:13:07;0.40;;;0.40;;
60078;SDS011;45951;45.824;8.824;2024-01-07T02:14:48;0.40;;;0.40;;
60078;SDS011;45951;45.824;8.824;2024-01-07T02:16:28;0.40;;;0.40;;
60078;SDS011;45951;45.824;8.824;2024-01-07T02:18:08;0.40;;;0.40;;
60078;SDS011;45951;45.824;8.824;2024-01-07T02:19:49;0.30;;;0.30;;
60078;SDS011;45951;45.824;8.824;2024-01-07T02:21:29;0.38;;;0.38;;
60078;SDS011;45951;45.824;8.824;2024-01-07T02:23:09;0.30;;;0.30;;
60078;SDS011;45951;45.824;8.824;2024-01-07T02:24:50;0.40;;;0.40;;
60078;SDS011;45951;45.824;8.824;2024-01-07T02:26:30;0.20;;;0.20;;
60078;SDS011;45951;45.824;8.824;2024-01-07T02:28:10;0.40;;;0.40;;
60078;SDS011;45951;45.824;8.824;2024-01-07T02:29:51;0.28;;;0.28;;
60078;SDS011;45951;45.824;8.824;2024-01-07T02:31:31;0.35;;;0.35;;
60078;SDS011;45951;45.824;8.824;2024-01-07T02:33:11;0.30;;;0.30;;
60078;SDS011;45951;45.824;8.824;2024-01-07T02:34:52;0.30;;;0.30;;
60078;SDS011;45951;45.824;8.824;2024-01-07T02:36:32;0.38;;;0.38;;
60078;SDS011;45951;45.824;8.824;2024-01-07T02:38:12;0.22;;;0.22;;
60078;SDS011;45951;45.824;8.824;2024-01-07T02:39:53;0.25;;;0.20;;
60078;SDS011;45951;45.824;8.824;2024-01-07T02:41:33;0.30;;;0.30;;
60078;SDS011;45951;45.824;8.824;2024-01-07T02:43:13;0.30;;;0.30;;
60078;SDS011;45951;45.824;8.824;2024-01-07T02:44:54;0.40;;;0.40;;
60078;SDS011;45951;45.824;8.824;2024-01-07T02:46:34;0.30;;;0.30;;
60078;SDS011;45951;45.824;8.824;2024-01-07T02:48:14;0.30;;;0.30;;
60078;SDS011;45951;45.824;8.824;2024-01-07T02:49:55;0.30;;;0.30;;
60078;SDS011;45951;45.824;8.824;2024-01-07T02:51:35;0.40;;;0.40;;
60078;SDS011;45951;45.824;8.824;2024-01-07T02:53:15;0.30;;;0.30;;
60078;SDS011;45951;45.824;8.824;2024-01-07T02:54:56;0.30;;;0.30;;
60078;SDS011;45951;45.824;8.824;2024-01-07T02:56:36;0.30;;;0.30;;
60078;SDS011;45951;45.824;8.824;2024-01-07T02:58:16;0.40;;;0.40;;
60078;SDS011;45951;45.824;8.824;2024-01-07T02:59:57;5.05;;;0.50;;
60078;SDS011;45951;45.824;8.824;2024-01-07T03:01:37;0.40;;;0.40;;
60078;SDS011;45951;45.824;8.824;2024-01-07T03:03:20;0.30;;;0.30;;
60078;SDS011;45951;45.824;8.824;2024-01-07T03:05:00;0.30;;;0.30;;
60078;SDS011;45951;45.824;8.824;2024-01-07T03:06:41;0.30;;;0.30;;
60078;SDS011;45951;45.824;8.824;2024-01-07T03:08:21;0.70;;;0.40;;
60078;SDS011;45951;45.824;8.824;2024-01-07T03:10:02;0.38;;;0.38;;
60078;SDS011;45951;45.824;8.824;2024-01-07T03:11:42;0.32;;;0.32;;
60078;SDS011;45951;45.824;8.824;2024-01-07T03:13:22;0.43;;;0.40;;
60078;SDS011;45951;45.824;8.824;2024-01-07T03:15:03;0.30;;;0.30;;
60078;SDS011;45951;45.824;8.824;2024-01-07T03:16:44;0.40;;;0.40;;
60078;SDS011;45951;45.824;8.824;2024-01-07T03:18:24;0.40;;;0.40;;
60078;SDS011;45951;45.824;8.824;2024-01-07T03:20:05;0.50;;;0.50;;
60078;SDS011;45951;45.824;8.824;2024-01-07T03:21:47;0.40;;;0.40;;
60078;SDS011;45951;45.824;8.824;2024-01-07T03:23:28;0.75;;;0.43;;
60078;SDS011;45951;45.824;8.824;2024-01-07T03:25:08;0.40;;;0.30;;
60078;SDS011;45951;45.824;8.824;2024-01-07T03:26:48;0.40;;;0.40;;
60078;SDS011;45951;45.824;8.824;2024-01-07T03:28:29;0.30;;;0.30;;
60078;SDS011;45951;45.824;8.824;2024-01-07T03:30:09;0.40;;;0.40;;
60078;SDS011;45951;45.824;8.824;2024-01-07T03:31:50;0.30;;;0.30;;
60078;SDS011;45951;45.824;8.824;2024-01-07T03:33:32;0.30;;;0.30;;
60078;SDS011;45951;45.824;8.824;2024-01-07T03:35:13;0.40;;;0.40;;
60078;SDS011;45951;45.824;8.824;2024-01-07T03:36:53;0.30;;;0.30;;
60078;SDS011;45951;45.824;8.824;2024-01-07T03:38:33;0.30;;;0.30;;
60078;SDS011;45951;45.824;8.824;2024-01-07T03:40:17;0.30;;;0.30;;
60078;SDS011;45951;45.824;8.824;2024-01-07T03:41:57;0.30;;;0.30;;
60078;SDS011;45951;45.824;8.824;2024-01-07T03:43:37;0.30;;;0.30;;
60078;SDS011;45951;45.824;8.824;2024-01-07T03:45:18;0.30;;;0.30;;
60078;SDS011;45951;45.824;8.824;2024-01-07T03:46:58;0.40;;;0.40;;
60078;SDS011;45951;45.824;8.824;2024-01-07T03:48:40;0.32;;;0.32;;
60078;SDS011;45951;45.824;8.824;2024-01-07T03:50:23;0.20;;;0.20;;
60078;SDS011;45951;45.824;8.824;2024-01-07T03:52:07;0.65;;;0.30;;
60078;SDS011;45951;45.824;8.824;2024-01-07T03:53:47;0.40;;;0.40;;
60078;SDS011;45951;45.824;8.824;2024-01-07T03:55:27;0.30;;;0.30;;
60078;SDS011;45951;45.824;8.824;2024-01-07T03:57:08;0.40;;;0.40;;
60078;SDS011;45951;45.824;8.824;2024-01-07T03:58:48;0.30;;;0.30;;
60078;SDS011;45951;45.824;8.824;2024-01-07T04:00:28;0.40;;;0.40;;
60078;SDS011;45951;45.824;8.824;2024-01-07T04:02:09;0.40;;;0.40;;
60078;SDS011;45951;45.824;8.824;2024-01-07T04:03:49;0.35;;;0.32;;
60078;SDS011;45951;45.824;8.824;2024-01-07T04:05:29;0.30;;;0.30;;
60078;SDS011;45951;45.824;8.824;2024-01-07T04:07:10;0.35;;;0.35;;
60078;SDS011;45951;45.824;8.824;2024-01-07T04:08:50;0.30;;;0.30;;
60078;SDS011;45951;45.824;8.824;2024-01-07T04:10:30;0.30;;;0.30;;
60078;SDS011;45951;45.824;8.824;2024-01-07T04:12:10;0.40;;;0.40;;
60078;SDS011;45951;45.824;8.824;2024-01-07T04:13:51;0.40;;;0.40;;
60078;SDS011;45951;45.824;8.824;2024-01-07T04:15:31;0.40;;;0.40;;
60078;SDS011;45951;45.824;8.824;2024-01-07T04:17:11;0.38;;;0.38;;
60078;SDS011;45951;45.824;8.824;2024-01-07T04:18:52;0.30;;;0.30;;
60078;SDS011;45951;45.824;8.824;2024-01-07T04:20:32;2.35;;;0.40;;
60078;SDS011;45951;45.824;8.824;2024-01-07T04:22:13;0.55;;;0.40;;
60078;SDS011;45951;45.824;8.824;2024-01-07T04:23:53;0.40;;;0.40;;
60078;SDS011;45951;45.824;8.824;2024-01-07T04:25:33;0.30;;;0.30;;
60078;SDS011;45951;45.824;8.824;2024-01-07T04:27:14;0.28;;;0.28;;
60078;SDS011;45951;45.824;8.824;2024-01-07T04:28:54;0.30;;;0.30;;
60078;SDS011;45951;45.824;8.824;2024-01-07T04:30:34;0.30;;;0.30;;
60078;SDS011;45951;45.824;8.824;2024-01-07T04:32:14;0.35;;;0.35;;
60078;SDS011;45951;45.824;8.824;2024-01-07T04:33:55;0.30;;;0.30;;
60078;SDS011;45951;45.824;8.824;2024-01-07T04:35:35;0.40;;;0.40;;
60078;SDS011;45951;45.824;8.824;2024-01-07T04:37:16;0.38;;;0.38;;
60078;SDS011;45951;45.824;8.824;2024-01-07T04:38:56;0.30;;;0.30;;
60078;SDS011;45951;45.824;8.824;2024-01-07T04:40:37;0.28;;;0.28;;
60078;SDS011;45951;45.824;8.824;2024-01-07T04:42:17;0.30;;;0.30;;
60078;SDS011;45951;45.824;8.824;2024-01-07T04:43:58;0.30;;;0.30;;
60078;SDS011;45951;45.824;8.824;2024-01-07T04:45:38;0.20;;;0.20;;
60078;SDS011;45951;45.824;8.824;2024-01-07T04:47:25;0.43;;;0.43;;
60078;SDS011;45951;45.824;8.824;2024-01-07T04:49:09;0.30;;;0.30;;
60078;SDS011;45951;45.824;8.824;2024-01-07T04:50:49;0.28;;;0.28;;
60078;SDS011;45951;45.824;8.824;2024-01-07T04:52:30;0.47;;;0.40;;
60078;SDS011;45951;45.824;8.824;2024-01-07T04:54:10;0.30;;;0.30;;
60078;SDS011;45951;45.824;8.824;2024-01-07T04:55:51;0.30;;;0.30;;
60078;SDS011;45951;45.824;8.824;2024-01-07T04:57:31;0.40;;;0.40;;
60078;SDS011;45951;45.824;8.824;2024-01-07T04:59:11;1.17;;;0.30;;
60078;SDS011;45951;45.824;8.824;2024-01-07T05:00:52;0.30;;;0.30;;
60078;SDS011;45951;45.824;8.824;2024-01-07T05:02:32;0.38;;;0.38;;
60078;SDS011;45951;45.824;8.824;2024-01-07T05:04:13;1.33;;;0.50;;
60078;SDS011;45951;45.824;8.824;2024-01-07T05:05:53;0.30;;;0.30;;
60078;SDS011;45951;45.824;8.824;2024-01-07T05:07:33;0.30;;;0.30;;
60078;SDS011;45951;45.824;8.824;2024-01-07T05:09:14;0.30;;;0.30;;
60078;SDS011;45951;45.824;8.824;2024-01-07T05:10:54;0.30;;;0.30;;
60078;SDS011;45951;45.824;8.824;2024-01-07T05:12:34;0.57;;;0.35;;
60078;SDS011;45951;45.824;8.824;2024-01-07T05:14:14;0.55;;;0.40;;
60078;SDS011;45951;45.824;8.824;2024-01-07T05:15:55;0.30;;;0.30;;
60078;SDS011;45951;45.824;8.824;2024-01-07T05:17:35;0.25;;;0.25;;
60078;SDS011;45951;45.824;8.824;2024-01-07T05:19:15;0.32;;;0.32;;
60078;SDS011;45951;45.824;8.824;2024-01-07T05:20:56;0.30;;;0.30;;
60078;SDS011;45951;45.824;8.824;2024-01-07T05:22:36;0.38;;;0.38;;
60078;SDS011;45951;45.824;8.824;2024-01-07T05:24:16;0.40;;;0.40;;
60078;SDS011;45951;45.824;8.824;2024-01-07T05:25:59;0.40;;;0.40;;
60078;SDS011;45951;45.824;8.824;2024-01-07T05:27:39;0.38;;;0.38;;
60078;SDS011;45951;45.824;8.824;2024-01-07T05:29:20;0.40;;;0.40;;
60078;SDS011;45951;45.824;8.824;2024-01-07T05:31:00;0.30;;;0.30;;
60078;SDS011;45951;45.824;8.824;2024-01-07T05:32:41;0.32;;;0.32;;
60078;SDS011;45951;45.824;8.824;2024-01-07T05:34:21;0.30;;;0.30;;
60078;SDS011;45951;45.824;8.824;2024-01-07T05:36:01;0.30;;;0.30;;
60078;SDS011;45951;45.824;8.824;2024-01-07T05:37:42;0.40;;;0.40;;
60078;SDS011;45951;45.824;8.824;2024-01-07T05:39:22;0.32;;;0.32;;
60078;SDS011;45951;45.824;8.824;2024-01-07T05:41:03;0.30;;;0.30;;
60078;SDS011;45951;45.824;8.824;2024-01-07T05:42:43;0.30;;;0.30;;
60078;SDS011;45951;45.824;8.824;2024-01-07T05:44:23;0.52;;;0.40;;
60078;SDS011;45951;45.824;8.824;2024-01-07T05:46:04;0.20;;;0.20;;
60078;SDS011;45951;45.824;8.824;2024-01-07T05:47:44;0.40;;;0.20;;
60078;SDS011;45951;45.824;8.824;2024-01-07T05:49:24;0.40;;;0.40;;
60078;SDS011;45951;45.824;8.824;2024-01-07T05:51:05;0.32;;;0.32;;
60078;SDS011;45951;45.824;8.824;2024-01-07T05:52:45;0.40;;;0.40;;
60078;SDS011;45951;45.824;8.824;2024-01-07T05:54:25;0.40;;;0.40;;
60078;SDS011;45951;45.824;8.824;2024-01-07T05:56:06;0.22;;;0.20;;
60078;SDS011;45951;45.824;8.824;2024-01-07T05:57:46;0.30;;;0.30;;
60078;SDS011;45951;45.824;8.824;2024-01-07T05:59:27;0.47;;;0.30;;
60078;SDS011;45951;45.824;8.824;2024-01-07T06:01:07;0.30;;;0.30;;
60078;SDS011;45951;45.824;8.824;2024-01-07T06:02:48;0.30;;;0.30;;
60078;SDS011;45951;45.824;8.824;2024-01-07T06:04:28;0.30;;;0.30;;
60078;SDS011;45951;45.824;8.824;2024-01-07T06:06:08;0.40;;;0.40;;
60078;SDS011;45951;45.824;8.824;2024-01-07T06:07:49;0.40;;;0.40;;
60078;SDS011;45951;45.824;8.824;2024-01-07T06:09:29;0.30;;;0.30;;
60078;SDS011;45951;45.824;8.824;2024-01-07T06:11:10;0.30;;;0.30;;
60078;SDS011;45951;45.824;8.824;2024-01-07T06:12:58;0.40;;;0.40;;
60078;SDS011;45951;45.824;8.824;2024-01-07T06:14:38;0.40;;;0.40;;
60078;SDS011;45951;45.824;8.824;2024-01-07T06:16:19;0.30;;;0.30;;
60078;SDS011;45951;45.824;8.824;2024-01-07T06:17:59;0.30;;;0.30;;
60078;SDS011;45951;45.824;8.824;2024-01-07T06:19:39;0.30;;;0.30;;
60078;SDS011;45951;45.824;8.824;2024-01-07T06:21:20;0.30;;;0.30;;
60078;SDS011;45951;45.824;8.824;2024-01-07T06:23:00;0.32;;;0.32;;
60078;SDS011;45951;45.824;8.824;2024-01-07T06:24:40;0.30;;;0.30;;
60078;SDS011;45951;45.824;8.824;2024-01-07T06:26:21;0.52;;;0.40;;
60078;SDS011;45951;45.824;8.824;2024-01-07T06:28:01;0.30;;;0.30;;
60078;SDS011;45951;45.824;8.824;2024-01-07T06:29:41;0.65;;;0.43;;
60078;SDS011;45951;45.824;8.824;2024-01-07T06:31:22;0.40;;;0.40;;
60078;SDS011;45951;45.824;8.824;2024-01-07T06:33:02;0.40;;;0.40;;
60078;SDS011;45951;45.824;8.824;2024-01-07T06:34:42;1.20;;;0.40;;
60078;SDS011;45951;45.824;8.824;2024-01-07T06:36:23;0.40;;;0.40;;
60078;SDS011;45951;45.824;8.824;2024-01-07T06:38:04;0.57;;;0.50;;
60078;SDS011;45951;45.824;8.824;2024-01-07T06:39:45;0.40;;;0.40;;
60078;SDS011;45951;45.824;8.824;2024-01-07T06:41:25;0.57;;;0.40;;
60078;SDS011;45951;45.824;8.824;2024-01-07T06:43:05;0.52;;;0.50;;
60078;SDS011;45951;45.824;8.824;2024-01-07T06:44:46;1.10;;;0.60;;
60078;SDS011;45951;45.824;8.824;2024-01-07T06:46:26;1.55;;;0.95;;
60078;SDS011;45951;45.824;8.824;2024-01-07T06:48:07;0.70;;;0.63;;
60078;SDS011;45951;45.824;8.824;2024-01-07T06:49:47;1.67;;;1.00;;
60078;SDS011;45951;45.824;8.824;2024-01-07T06:51:28;2.38;;;1.25;;
60078;SDS011;45951;45.824;8.824;2024-01-07T06:53:08;3.28;;;1.58;;
60078;SDS011;45951;45.824;8.824;2024-01-07T06:54:48;0.65;;;0.63;;
60078;SDS011;45951;45.824;8.824;2024-01-07T06:56:29;1.08;;;0.70;;
60078;SDS011;45951;45.824;8.824;2024-01-07T06:58:09;0.88;;;0.50;;
60078;SDS011;45951;45.824;8.824;2024-01-07T06:59:49;0.32;;;0.32;;
60078;SDS011;45951;45.824;8.824;2024-01-07T07:01:30;0.40;;;0.40;;
60078;SDS011;45951;45.824;8.824;2024-01-07T07:03:10;0.50;;;0.50;;
60078;SDS011;45951;45.824;8.824;2024-01-07T07:04:51;0.38;;;0.38;;
60078;SDS011;45951;45.824;8.824;2024-01-07T07:06:31;1.73;;;0.70;;
60078;SDS011;45951;45.824;8.824;2024-01-07T07:08:12;0.50;;;0.50;;
60078;SDS011;45951;45.824;8.824;2024-01-07T07:09:52;0.40;;;0.30;;
60078;SDS011;45951;45.824;8.824;2024-01-07T07:11:32;0.50;;;0.30;;
60078;SDS011;45951;45.824;8.824;2024-01-07T07:13:13;0.57;;;0.47;;
60078;SDS011;45951;45.824;8.824;2024-01-07T07:14:54;0.47;;;0.47;;
60078;SDS011;45951;45.824;8.824;2024-01-07T07:16:35;0.47;;;0.47;;
60078;SDS011;45951;45.824;8.824;2024-01-07T07:18:15;0.40;;;0.40;;
60078;SDS011;45951;45.824;8.824;2024-01-07T07:19:55;0.40;;;0.40;;
60078;SDS011;45951;45.824;8.824;2024-01-07T07:21:36;0.35;;;0.35;;
60078;SDS011;45951;45.824;8.824;2024-01-07T07:23:16;0.32;;;0.32;;
60078;SDS011;45951;45.824;8.824;2024-01-07T07:24:56;0.80;;;0.60;;
60078;SDS011;45951;45.824;8.824;2024-01-07T07:26:37;0.40;;;0.40;;
60078;SDS011;45951;45.824;8.824;2024-01-07T07:28:20;0.50;;;0.50;;
60078;SDS011;45951;45.824;8.824;2024-01-07T07:30:01;0.85;;;0.50;;
60078;SDS011;45951;45.824;8.824;2024-01-07T07:31:41;0.38;;;0.38;;
60078;SDS011;45951;45.824;8.824;2024-01-07T07:33:21;0.45;;;0.40;;
60078;SDS011;45951;45.824;8.824;2024-01-07T07:35:02;0.60;;;0.50;;
60078;SDS011;45951;45.824;8.824;2024-01-07T07:36:42;0.40;;;0.40;;
60078;SDS011;45951;45.824;8.824;2024-01-07T07:38:24;0.70;;;0.50;;
60078;SDS011;45951;45.824;8.824;2024-01-07T07:40:05;0.50;;;0.50;;
60078;SDS011;45951;45.824;8.824;2024-01-07T07:41:45;2.33;;;0.95;;
60078;SDS011;45951;45.824;8.824;2024-01-07T07:43:26;0.93;;;0.60;;
60078;SDS011;45951;45.824;8.824;2024-01-07T07:45:06;1.45;;;0.80;;
60078;SDS011;45951;45.824;8.824;2024-01-07T07:46:47;2.10;;;0.90;;
60078;SDS011;45951;45.824;8.824;2024-01-07T07:48:27;1.20;;;0.88;;
60078;SDS011;45951;45.824;8.824;2024-01-07T07:50:08;0.60;;;0.60;;
60078;SDS011;45951;45.824;8.824;2024-01-07T07:51:50;0.60;;;0.50;;
60078;SDS011;45951;45.824;8.824;2024-01-07T07:53:30;0.80;;;0.68;;
60078;SDS011;45951;45.824;8.824;2024-01-07T07:55:11;0.65;;;0.50;;
60078;SDS011;45951;45.824;8.824;2024-01-07T07:56:51;0.65;;;0.65;;
60078;SDS011;45951;45.824;8.824;2024-01-07T07:58:31;0.55;;;0.50;;
60078;SDS011;45951;45.824;8.824;2024-01-07T08:00:12;0.88;;;0.60;;
60078;SDS011;45951;45.824;8.824;2024-01-07T08:01:52;0.32;;;0.32;;
60078;SDS011;45951;45.824;8.824;2024-01-07T08:03:33;0.40;;;0.40;;
60078;SDS011;45951;45.824;8.824;2024-01-07T08:05:13;0.47;;;0.47;;
60078;SDS011;45951;45.824;8.824;2024-01-07T08:06:54;0.52;;;0.52;;
60078;SDS011;45951;45.824;8.824;2024-01-07T08:08:36;0.50;;;0.50;;
60078;SDS011;45951;45.824;8.824;2024-01-07T08:10:16;0.40;;;0.40;;
60078;SDS011;45951;45.824;8.824;2024-01-07T08:11:56;0.40;;;0.40;;
60078;SDS011;45951;45.824;8.824;2024-01-07T08:13:37;0.57;;;0.50;;
60078;SDS011;45951;45.824;8.824;2024-01-07T08:15:17;0.30;;;0.30;;
60078;SDS011;45951;45.824;8.824;2024-01-07T08:16:58;0.32;;;0.32;;
60078;SDS011;45951;45.824;8.824;2024-01-07T08:18:38;0.40;;;0.40;;
60078;SDS011;45951;45.824;8.824;2024-01-07T08:20:19;0.45;;;0.40;;
60078;SDS011;45951;45.824;8.824;2024-01-07T08:21:59;0.40;;;0.40;;
60078;SDS011;45951;45.824;8.824;2024-01-07T08:23:40;0.47;;;0.47;;
60078;SDS011;45951;45.824;8.824;2024-01-07T08:25:20;0.60;;;0.50;;
60078;SDS011;45951;45.824;8.824;2024-01-07T08:27:01;0.60;;;0.60;;
60078;SDS011;45951;45.824;8.824;2024-01-07T08:28:41;0.40;;;0.40;;
60078;SDS011;45951;45.824;8.824;2024-01-07T08:30:22;0.57;;;0.57;;
60078;SDS011;45951;45.824;8.824;2024-01-07T08:32:03;0.30;;;0.30;;
60078;SDS011;45951;45.824;8.824;2024-01-07T08:33:44;0.40;;;0.40;;
60078;SDS011;45951;45.824;8.824;2024-01-07T08:35:24;0.85;;;0.60;;
60078;SDS011;45951;45.824;8.824;2024-01-07T08:37:05;0.47;;;0.47;;
60078;SDS011;45951;45.824;8.824;2024-01-07T08:38:45;0.47;;;0.47;;
60078;SDS011;45951;45.824;8.824;2024-01-07T08:40:26;0.43;;;0.40;;
60078;SDS011;45951;45.824;8.824;2024-01-07T08:42:06;0.38;;;0.38;;
60078;SDS011;45951;45.824;8.824;2024-01-07T08:43:46;1.48;;;0.40;;
60078;SDS011;45951;45.824;8.824;2024-01-07T08:45:27;0.32;;;0.32;;
60078;SDS011;45951;45.824;8.824;2024-01-07T08:47:07;0.30;;;0.30;;
60078;SDS011;45951;45.824;8.824;2024-01-07T08:48:47;0.40;;;0.40;;
60078;SDS011;45951;45.824;8.824;2024-01-07T08:50:28;0.52;;;0.40;;
60078;SDS011;45951;45.824;8.824;2024-01-07T08:52:09;0.40;;;0.40;;
60078;SDS011;45951;45.824;8.824;2024-01-07T08:53:50;0.40;;;0.40;;
60078;SDS011;45951;45.824;8.824;2024-01-07T08:55:30;0.50;;;0.50;;
60078;SDS011;45951;45.824;8.824;2024-01-07T08:57:11;1.42;;;0.70;;
60078;SDS011;45951;45.824;8.824;2024-01-07T08:58:51;1.13;;;0.73;;
60078;SDS011;45951;45.824;8.824;2024-01-07T09:00:32;0.70;;;0.70;;
60078;SDS011;45951;45.824;8.824;2024-01-07T09:02:12;0.30;;;0.30;;
60078;SDS011;45951;45.824;8.824;2024-01-07T09:03:53;0.30;;;0.30;;
60078;SDS011;45951;45.824;8.824;2024-01-07T09:05:34;0.60;;;0.60;;
60078;SDS011;45951;45.824;8.824;2024-01-07T09:07:14;0.50;;;0.40;;
60078;SDS011;45951;45.824;8.824;2024-01-07T09:08:56;1.55;;;0.50;;
60078;SDS011;45951;45.824;8.824;2024-01-07T09:10:36;0.50;;;0.50;;
60078;SDS011;45951;45.824;8.824;2024-01-07T09:12:17;0.47;;;0.47;;
60078;SDS011;45951;45.824;8.824;2024-01-07T09:13:59;0.40;;;0.40;;
60078;SDS011;45951;45.824;8.824;2024-01-07T09:15:40;0.45;;;0.45;;
60078;SDS011;45951;45.824;8.824;2024-01-07T09:17:20;0.50;;;0.50;;
60078;SDS011;45951;45.824;8.824;2024-01-07T09:19:01;0.35;;;0.35;;
60078;SDS011;45951;45.824;8.824;2024-01-07T09:20:41;0.77;;;0.60;;
60078;SDS011;45951;45.824;8.824;2024-01-07T09:22:22;1.67;;;0.50;;
60078;SDS011;45951;45.824;8.824;2024-01-07T09:24:02;0.60;;;0.40;;
60078;SDS011;45951;45.824;8.824;2024-01-07T09:25:42;0.40;;;0.40;;
60078;SDS011;45951;45.824;8.824;2024-01-07T09:27:23;0.50;;;0.50;;
60078;SDS011;45951;45.824;8.824;2024-01-07T09:29:03;0.75;;;0.40;;
60078;SDS011;45951;45.824;8.824;2024-01-07T09:30:44;0.77;;;0.68;;
60078;SDS011;45951;45.824;8.824;2024-01-07T09:32:24;0.40;;;0.40;;
60078;SDS011;45951;45.824;8.824;2024-01-07T09:34:04;0.47;;;0.47;;
60078;SDS011;45951;45.824;8.824;2024-01-07T09:35:46;0.95;;;0.70;;
60078;SDS011;45951;45.824;8.824;2024-01-07T09:37:26;0.63;;;0.60;;
60078;SDS011;45951;45.824;8.824;2024-01-07T09:39:07;0.40;;;0.40;;
60078;SDS011;45951;45.824;8.824;2024-01-07T09:40:47;0.60;;;0.55;;
60078;SDS011;45951;45.824;8.824;2024-01-07T09:42:28;0.50;;;0.50;;
60078;SDS011;45951;45.824;8.824;2024-01-07T09:44:08;0.77;;;0.50;;
60078;SDS011;45951;45.824;8.824;2024-01-07T09:45:50;0.50;;;0.50;;
60078;SDS011;45951;45.824;8.824;2024-01-07T09:47:31;0.40;;;0.40;;
60078;SDS011;45951;45.824;8.824;2024-01-07T09:49:12;0.50;;;0.50;;
60078;SDS011;45951;45.824;8.824;2024-01-07T09:50:52;0.45;;;0.45;;
60078;SDS011;45951;45.824;8.824;2024-01-07T09:52:33;0.60;;;0.60;;
60078;SDS011;45951;45.824;8.824;2024-01-07T09:54:13;0.40;;;0.40;;
60078;SDS011;45951;45.824;8.824;2024-01-07T09:58:08;0.40;;;0.40;;
60078;SDS011;45951;45.824;8.824;2024-01-07T09:59:48;0.50;;;0.50;;
60078;SDS011;45951;45.824;8.824;2024-01-07T10:01:29;0.68;;;0.50;;
60078;SDS011;45951;45.824;8.824;2024-01-07T10:03:10;0.43;;;0.43;;
60078;SDS011;45951;45.824;8.824;2024-01-07T10:04:51;0.30;;;0.30;;
60078;SDS011;45951;45.824;8.824;2024-01-07T10:06:32;0.40;;;0.40;;
60078;SDS011;45951;45.824;8.824;2024-01-07T10:08:12;0.40;;;0.40;;